Pagrindinis puslapis
METAR-TAF:

METAR-TAF

Oro uostai :

Midland, Teksasas, Jungtinės Amerikos Valstijos

platuma: 31-56-52N, ilguma: 102-12-31W, Aukštis: 875 m

Dabartinis oras

Ataskaita buvo paskelbta 36 minutes, ne 17:53 UTC
Vėjas 6 kt iš Pietryčių
Temperatūra 26°C
Drėgmė 45%
Slėgis 1021 hPa
Matomumas: 12.9 km
Giedras dangus

METAR: KMAF 031753Z 13006KT 8SM CLR 26/13 A3016 RMK AO2 SLP172 T02610128 10267 20161 58007

Laikas: 13:29 (18:29 UTC)

Prognozė

Ataskaita buvo paskelbta 20 minutes, ne 18:09 UTC
Prognozė galioja nuo 03 metu 18 UTC su 04 metu 18 UTC
Vėjas 9 kt iš Rytų
Matomumas: 10 km
Giedras dangus

TAF: KMAF 031809Z 0318/0418 09009KT P6SM SKC

Orai ataskaitas ir orų prognozės (METAR, TAF).

turimą stotys yra geltonos ir raudonos taškus žemėlapyje.

Perkelti pele per norėdami pamatyti stoties vardą.

Tada spustelėkite, norėdami matyti oro stebėjimo ir prognozės.

Norėdami pakeisti žemėlapį: spustelėkite ant žalios mygtukų su juodo kryžiaus žemyn,; žalią mygtuką su brūkšneliu, jei norite nutolinti; arba žalių rodyklių gretimoms žemėlapius.


METAR-TAF: